Terminal Aerodrome Forecast
Issued by NWS

Home | Current Version | Previous Version | Graphics & Text | Print | Product List | Glossary On
Versions: 1 2 3 4 5 6 7 8 9 10 11 12 13 14 15
000
FTUS45 KGGW 131506 AAA
TAFOLF
TAF AMD
KOLF 131506Z 1315/1412 09009KT P6SM BKN013
     FM131600 10011KT P6SM SCT015
     FM131800 12011KT P6SM SKC
     FM141000 09008KT P6SM BKN090=

USA.gov is the U.S. government's official web portal to all federal, state and local government web resources and services.